Alvada, Ohio
Current Conditions -  °F | °C
As of 6:19 AM on Thursday 23 Oct 2014 (Local Time) from KFDY Reporting Station
Moderate Fog Moderate Fog  
Wind Chill: 36°   Ceiling: 200
Heat Index: 36°   Visibility: 0.5mi
Dew Point: 34°   Wind: 3mph
Humidity: 93%   Direction: 290°WNW
Pressure: 30.24"   Gusts: NA
Location:  41.05°N, 83.4°W
Report Text: KFDY 231019Z AUTO 29003KT 1/2SM FG VV002 02/01 A3024 RMK AO2 T00220011
Loading
Personal Weather Stations






























Interactive Weather Map
Tropical Storm Tracking
New forecast layout! Learn more

10-Day Weather Forecast

Advertisements
Track Severe Weather on mobile